sensor_id;sensor_type;location;lat;lon;timestamp;P1;durP1;ratioP1;P2;durP2;ratioP2
68655;SDS011;55638;51.122;13.606;2023-12-20T00:00:33;2.63;;;1.40;;
68655;SDS011;55638;51.122;13.606;2023-12-20T00:02:05;1.70;;;1.35;;
68655;SDS011;55638;51.122;13.606;2023-12-20T00:03:37;1.60;;;1.27;;
68655;SDS011;55638;51.122;13.606;2023-12-20T00:05:13;1.42;;;1.25;;
68655;SDS011;55638;51.122;13.606;2023-12-20T00:06:46;1.58;;;1.30;;
68655;SDS011;55638;51.122;13.606;2023-12-20T00:08:17;1.55;;;1.17;;
68655;SDS011;55638;51.122;13.606;2023-12-20T00:09:49;2.03;;;1.40;;
68655;SDS011;55638;51.122;13.606;2023-12-20T00:11:21;1.40;;;1.30;;
68655;SDS011;55638;51.122;13.606;2023-12-20T00:12:53;2.10;;;1.77;;
68655;SDS011;55638;51.122;13.606;2023-12-20T00:14:25;1.90;;;1.35;;
68655;SDS011;55638;51.122;13.606;2023-12-20T00:15:57;1.48;;;1.27;;
68655;SDS011;55638;51.122;13.606;2023-12-20T00:17:29;1.40;;;1.30;;
68655;SDS011;55638;51.122;13.606;2023-12-20T00:19:01;1.88;;;1.35;;
68655;SDS011;55638;51.122;13.606;2023-12-20T00:20:33;1.83;;;1.30;;
68655;SDS011;55638;51.122;13.606;2023-12-20T00:22:05;1.52;;;1.25;;
68655;SDS011;55638;51.122;13.606;2023-12-20T00:23:37;1.23;;;1.13;;
68655;SDS011;55638;51.122;13.606;2023-12-20T00:25:09;1.65;;;1.38;;
68655;SDS011;55638;51.122;13.606;2023-12-20T00:26:41;1.75;;;1.40;;
68655;SDS011;55638;51.122;13.606;2023-12-20T00:28:12;1.50;;;1.05;;
68655;SDS011;55638;51.122;13.606;2023-12-20T00:29:44;1.35;;;1.02;;
68655;SDS011;55638;51.122;13.606;2023-12-20T00:31:19;1.60;;;1.13;;
68655;SDS011;55638;51.122;13.606;2023-12-20T00:32:51;1.30;;;1.10;;
68655;SDS011;55638;51.122;13.606;2023-12-20T00:34:23;2.00;;;1.00;;
68655;SDS011;55638;51.122;13.606;2023-12-20T00:35:56;2.20;;;1.40;;
68655;SDS011;55638;51.122;13.606;2023-12-20T00:37:27;1.27;;;1.15;;
68655;SDS011;55638;51.122;13.606;2023-12-20T00:38:59;1.20;;;1.10;;
68655;SDS011;55638;51.122;13.606;2023-12-20T00:40:32;1.27;;;0.90;;
68655;SDS011;55638;51.122;13.606;2023-12-20T00:42:04;1.38;;;1.00;;
68655;SDS011;55638;51.122;13.606;2023-12-20T00:43:36;1.50;;;1.30;;
68655;SDS011;55638;51.122;13.606;2023-12-20T00:45:08;1.27;;;1.00;;
68655;SDS011;55638;51.122;13.606;2023-12-20T00:46:40;1.35;;;0.98;;
68655;SDS011;55638;51.122;13.606;2023-12-20T00:48:12;1.48;;;1.00;;
68655;SDS011;55638;51.122;13.606;2023-12-20T00:49:44;1.10;;;0.90;;
68655;SDS011;55638;51.122;13.606;2023-12-20T00:51:16;0.90;;;0.70;;
68655;SDS011;55638;51.122;13.606;2023-12-20T00:52:48;1.45;;;0.98;;
68655;SDS011;55638;51.122;13.606;2023-12-20T00:54:20;1.30;;;1.05;;
68655;SDS011;55638;51.122;13.606;2023-12-20T00:55:51;1.60;;;1.00;;
68655;SDS011;55638;51.122;13.606;2023-12-20T00:57:23;1.20;;;0.80;;
68655;SDS011;55638;51.122;13.606;2023-12-20T00:58:55;1.00;;;0.90;;
68655;SDS011;55638;51.122;13.606;2023-12-20T01:00:27;1.35;;;0.82;;
68655;SDS011;55638;51.122;13.606;2023-12-20T01:01:59;0.98;;;0.75;;
68655;SDS011;55638;51.122;13.606;2023-12-20T01:03:31;1.20;;;1.00;;
68655;SDS011;55638;51.122;13.606;2023-12-20T01:05:03;1.20;;;1.10;;
68655;SDS011;55638;51.122;13.606;2023-12-20T01:06:35;0.60;;;0.60;;
68655;SDS011;55638;51.122;13.606;2023-12-20T01:08:07;0.98;;;0.88;;
68655;SDS011;55638;51.122;13.606;2023-12-20T01:09:39;0.98;;;0.82;;
68655;SDS011;55638;51.122;13.606;2023-12-20T01:11:11;0.85;;;0.70;;
68655;SDS011;55638;51.122;13.606;2023-12-20T01:12:43;0.98;;;0.68;;
68655;SDS011;55638;51.122;13.606;2023-12-20T01:14:15;1.00;;;0.90;;
68655;SDS011;55638;51.122;13.606;2023-12-20T01:15:47;0.93;;;0.75;;
68655;SDS011;55638;51.122;13.606;2023-12-20T01:17:19;0.70;;;0.68;;
68655;SDS011;55638;51.122;13.606;2023-12-20T01:18:51;0.80;;;0.80;;
68655;SDS011;55638;51.122;13.606;2023-12-20T01:20:23;0.80;;;0.80;;
68655;SDS011;55638;51.122;13.606;2023-12-20T01:21:55;1.17;;;1.00;;
68655;SDS011;55638;51.122;13.606;2023-12-20T01:23:27;0.60;;;0.57;;
68655;SDS011;55638;51.122;13.606;2023-12-20T01:24:59;0.80;;;0.70;;
68655;SDS011;55638;51.122;13.606;2023-12-20T01:26:31;0.70;;;0.57;;
68655;SDS011;55638;51.122;13.606;2023-12-20T01:28:03;0.65;;;0.50;;
68655;SDS011;55638;51.122;13.606;2023-12-20T01:29:35;0.93;;;0.70;;
68655;SDS011;55638;51.122;13.606;2023-12-20T01:31:08;0.70;;;0.50;;
68655;SDS011;55638;51.122;13.606;2023-12-20T01:32:40;1.05;;;0.50;;
68655;SDS011;55638;51.122;13.606;2023-12-20T01:34:12;0.50;;;0.50;;
68655;SDS011;55638;51.122;13.606;2023-12-20T01:35:44;0.90;;;0.70;;
68655;SDS011;55638;51.122;13.606;2023-12-20T01:37:16;0.68;;;0.60;;
68655;SDS011;55638;51.122;13.606;2023-12-20T01:38:48;0.82;;;0.40;;
68655;SDS011;55638;51.122;13.606;2023-12-20T01:40:21;0.63;;;0.63;;
68655;SDS011;55638;51.122;13.606;2023-12-20T01:41:53;0.85;;;0.60;;
68655;SDS011;55638;51.122;13.606;2023-12-20T01:43:25;0.50;;;0.40;;
68655;SDS011;55638;51.122;13.606;2023-12-20T01:45:00;0.60;;;0.50;;
68655;SDS011;55638;51.122;13.606;2023-12-20T01:46:32;0.85;;;0.50;;
68655;SDS011;55638;51.122;13.606;2023-12-20T01:48:04;1.10;;;0.38;;
68655;SDS011;55638;51.122;13.606;2023-12-20T01:49:37;0.57;;;0.40;;
68655;SDS011;55638;51.122;13.606;2023-12-20T01:51:09;0.57;;;0.50;;
68655;SDS011;55638;51.122;13.606;2023-12-20T01:52:42;0.50;;;0.30;;
68655;SDS011;55638;51.122;13.606;2023-12-20T01:54:15;0.50;;;0.40;;
68655;SDS011;55638;51.122;13.606;2023-12-20T01:55:47;0.80;;;0.40;;
68655;SDS011;55638;51.122;13.606;2023-12-20T01:57:21;1.30;;;0.47;;
68655;SDS011;55638;51.122;13.606;2023-12-20T01:58:54;0.57;;;0.50;;
68655;SDS011;55638;51.122;13.606;2023-12-20T02:00:27;0.38;;;0.32;;
68655;SDS011;55638;51.122;13.606;2023-12-20T02:02:00;0.40;;;0.30;;
68655;SDS011;55638;51.122;13.606;2023-12-20T02:03:35;0.70;;;0.40;;
68655;SDS011;55638;51.122;13.606;2023-12-20T02:05:08;0.43;;;0.40;;
68655;SDS011;55638;51.122;13.606;2023-12-20T02:06:41;0.30;;;0.30;;
68655;SDS011;55638;51.122;13.606;2023-12-20T02:08:14;0.60;;;0.50;;
68655;SDS011;55638;51.122;13.606;2023-12-20T02:09:46;0.50;;;0.40;;
68655;SDS011;55638;51.122;13.606;2023-12-20T02:11:18;0.40;;;0.32;;
68655;SDS011;55638;51.122;13.606;2023-12-20T02:12:50;0.50;;;0.43;;
68655;SDS011;55638;51.122;13.606;2023-12-20T02:14:22;0.28;;;0.28;;
68655;SDS011;55638;51.122;13.606;2023-12-20T02:15:54;0.30;;;0.30;;
68655;SDS011;55638;51.122;13.606;2023-12-20T02:17:27;0.47;;;0.30;;
68655;SDS011;55638;51.122;13.606;2023-12-20T02:18:59;0.40;;;0.30;;
68655;SDS011;55638;51.122;13.606;2023-12-20T02:20:31;0.40;;;0.40;;
68655;SDS011;55638;51.122;13.606;2023-12-20T02:23:41;0.20;;;0.20;;
68655;SDS011;55638;51.122;13.606;2023-12-20T02:25:13;0.50;;;0.40;;
68655;SDS011;55638;51.122;13.606;2023-12-20T02:26:45;0.30;;;0.30;;
68655;SDS011;55638;51.122;13.606;2023-12-20T02:28:17;0.22;;;0.20;;
68655;SDS011;55638;51.122;13.606;2023-12-20T02:29:50;0.28;;;0.20;;
68655;SDS011;55638;51.122;13.606;2023-12-20T02:31:23;0.30;;;0.20;;
68655;SDS011;55638;51.122;13.606;2023-12-20T02:32:55;0.30;;;0.25;;
68655;SDS011;55638;51.122;13.606;2023-12-20T02:34:27;0.52;;;0.30;;
68655;SDS011;55638;51.122;13.606;2023-12-20T02:35:59;0.82;;;0.30;;
68655;SDS011;55638;51.122;13.606;2023-12-20T02:37:32;0.43;;;0.30;;
68655;SDS011;55638;51.122;13.606;2023-12-20T02:39:04;0.30;;;0.30;;
68655;SDS011;55638;51.122;13.606;2023-12-20T02:40:36;0.40;;;0.30;;
68655;SDS011;55638;51.122;13.606;2023-12-20T02:42:08;0.60;;;0.30;;
68655;SDS011;55638;51.122;13.606;2023-12-20T02:43:40;0.22;;;0.22;;
68655;SDS011;55638;51.122;13.606;2023-12-20T02:45:12;0.25;;;0.25;;
68655;SDS011;55638;51.122;13.606;2023-12-20T02:46:43;0.73;;;0.20;;
68655;SDS011;55638;51.122;13.606;2023-12-20T02:48:16;0.50;;;0.30;;
68655;SDS011;55638;51.122;13.606;2023-12-20T02:49:49;0.20;;;0.20;;
68655;SDS011;55638;51.122;13.606;2023-12-20T02:51:21;0.28;;;0.28;;
68655;SDS011;55638;51.122;13.606;2023-12-20T02:52:53;0.30;;;0.20;;
68655;SDS011;55638;51.122;13.606;2023-12-20T02:54:25;0.35;;;0.20;;
68655;SDS011;55638;51.122;13.606;2023-12-20T02:55:57;0.20;;;0.20;;
68655;SDS011;55638;51.122;13.606;2023-12-20T02:57:29;0.30;;;0.20;;
68655;SDS011;55638;51.122;13.606;2023-12-20T02:59:01;0.40;;;0.20;;
68655;SDS011;55638;51.122;13.606;2023-12-20T03:00:33;0.28;;;0.20;;
68655;SDS011;55638;51.122;13.606;2023-12-20T03:02:05;0.38;;;0.20;;
68655;SDS011;55638;51.122;13.606;2023-12-20T03:03:37;0.50;;;0.30;;
68655;SDS011;55638;51.122;13.606;2023-12-20T03:05:09;0.40;;;0.30;;
68655;SDS011;55638;51.122;13.606;2023-12-20T03:06:41;0.35;;;0.28;;
68655;SDS011;55638;51.122;13.606;2023-12-20T03:08:13;0.20;;;0.20;;
68655;SDS011;55638;51.122;13.606;2023-12-20T03:09:45;0.35;;;0.20;;
68655;SDS011;55638;51.122;13.606;2023-12-20T03:11:36;0.15;;;0.15;;
68655;SDS011;55638;51.122;13.606;2023-12-20T03:13:08;0.20;;;0.20;;
68655;SDS011;55638;51.122;13.606;2023-12-20T03:14:40;0.20;;;0.20;;
68655;SDS011;55638;51.122;13.606;2023-12-20T03:16:12;0.22;;;0.22;;
68655;SDS011;55638;51.122;13.606;2023-12-20T03:17:45;0.10;;;0.10;;
68655;SDS011;55638;51.122;13.606;2023-12-20T03:19:17;0.20;;;0.20;;
68655;SDS011;55638;51.122;13.606;2023-12-20T03:20:51;0.20;;;0.20;;
68655;SDS011;55638;51.122;13.606;2023-12-20T03:22:23;0.30;;;0.20;;
68655;SDS011;55638;51.122;13.606;2023-12-20T03:23:55;0.80;;;0.20;;
68655;SDS011;55638;51.122;13.606;2023-12-20T03:25:27;0.30;;;0.22;;
68655;SDS011;55638;51.122;13.606;2023-12-20T03:26:58;0.55;;;0.25;;
68655;SDS011;55638;51.122;13.606;2023-12-20T03:28:30;0.20;;;0.20;;
68655;SDS011;55638;51.122;13.606;2023-12-20T03:30:02;0.13;;;0.10;;
68655;SDS011;55638;51.122;13.606;2023-12-20T03:31:35;1.15;;;0.30;;
68655;SDS011;55638;51.122;13.606;2023-12-20T03:33:07;0.17;;;0.15;;
68655;SDS011;55638;51.122;13.606;2023-12-20T03:34:39;0.10;;;0.10;;
68655;SDS011;55638;51.122;13.606;2023-12-20T03:36:11;0.20;;;0.10;;
68655;SDS011;55638;51.122;13.606;2023-12-20T03:37:43;0.20;;;0.20;;
68655;SDS011;55638;51.122;13.606;2023-12-20T03:39:15;0.95;;;0.10;;
68655;SDS011;55638;51.122;13.606;2023-12-20T03:40:47;0.40;;;0.20;;
68655;SDS011;55638;51.122;13.606;2023-12-20T03:42:19;0.10;;;0.10;;
68655;SDS011;55638;51.122;13.606;2023-12-20T03:43:50;0.20;;;0.20;;
68655;SDS011;55638;51.122;13.606;2023-12-20T03:45:22;0.17;;;0.15;;
68655;SDS011;55638;51.122;13.606;2023-12-20T03:46:54;0.10;;;0.10;;
68655;SDS011;55638;51.122;13.606;2023-12-20T03:48:26;1.05;;;0.50;;
68655;SDS011;55638;51.122;13.606;2023-12-20T03:49:58;0.17;;;0.13;;
68655;SDS011;55638;51.122;13.606;2023-12-20T03:51:30;0.20;;;0.20;;
68655;SDS011;55638;51.122;13.606;2023-12-20T03:53:02;0.22;;;0.20;;
68655;SDS011;55638;51.122;13.606;2023-12-20T03:54:35;0.20;;;0.20;;
68655;SDS011;55638;51.122;13.606;2023-12-20T03:56:07;0.20;;;0.15;;
68655;SDS011;55638;51.122;13.606;2023-12-20T03:57:39;0.20;;;0.20;;
68655;SDS011;55638;51.122;13.606;2023-12-20T03:59:11;0.20;;;0.20;;
68655;SDS011;55638;51.122;13.606;2023-12-20T04:00:43;0.20;;;0.20;;
68655;SDS011;55638;51.122;13.606;2023-12-20T04:02:15;0.20;;;0.17;;
68655;SDS011;55638;51.122;13.606;2023-12-20T04:03:49;0.13;;;0.13;;
68655;SDS011;55638;51.122;13.606;2023-12-20T04:05:21;0.10;;;0.10;;
68655;SDS011;55638;51.122;13.606;2023-12-20T04:06:53;0.13;;;0.13;;
68655;SDS011;55638;51.122;13.606;2023-12-20T04:08:25;0.40;;;0.20;;
68655;SDS011;55638;51.122;13.606;2023-12-20T04:09:57;0.20;;;0.20;;
68655;SDS011;55638;51.122;13.606;2023-12-20T04:11:29;0.10;;;0.10;;
68655;SDS011;55638;51.122;13.606;2023-12-20T04:13:01;0.10;;;0.10;;
68655;SDS011;55638;51.122;13.606;2023-12-20T04:14:33;0.20;;;0.20;;
68655;SDS011;55638;51.122;13.606;2023-12-20T04:16:05;0.43;;;0.15;;
68655;SDS011;55638;51.122;13.606;2023-12-20T04:17:37;0.30;;;0.20;;
68655;SDS011;55638;51.122;13.606;2023-12-20T04:19:09;0.40;;;0.10;;
68655;SDS011;55638;51.122;13.606;2023-12-20T04:20:41;0.10;;;0.10;;
68655;SDS011;55638;51.122;13.606;2023-12-20T04:22:13;0.10;;;0.10;;
68655;SDS011;55638;51.122;13.606;2023-12-20T04:23:45;0.20;;;0.20;;
68655;SDS011;55638;51.122;13.606;2023-12-20T04:25:17;0.10;;;0.10;;
68655;SDS011;55638;51.122;13.606;2023-12-20T04:26:49;1.15;;;0.20;;
68655;SDS011;55638;51.122;13.606;2023-12-20T04:28:21;0.10;;;0.10;;
68655;SDS011;55638;51.122;13.606;2023-12-20T04:29:53;0.68;;;0.20;;
68655;SDS011;55638;51.122;13.606;2023-12-20T04:31:25;0.10;;;0.10;;
68655;SDS011;55638;51.122;13.606;2023-12-20T04:32:56;0.13;;;0.13;;
68655;SDS011;55638;51.122;13.606;2023-12-20T04:34:29;0.45;;;0.30;;
68655;SDS011;55638;51.122;13.606;2023-12-20T04:36:00;0.20;;;0.20;;
68655;SDS011;55638;51.122;13.606;2023-12-20T04:37:32;0.10;;;0.10;;
68655;SDS011;55638;51.122;13.606;2023-12-20T04:39:04;0.20;;;0.20;;
68655;SDS011;55638;51.122;13.606;2023-12-20T04:40:36;0.10;;;0.10;;
68655;SDS011;55638;51.122;13.606;2023-12-20T04:42:08;0.10;;;0.10;;
68655;SDS011;55638;51.122;13.606;2023-12-20T04:43:40;0.25;;;0.22;;
68655;SDS011;55638;51.122;13.606;2023-12-20T04:45:12;0.15;;;0.10;;
68655;SDS011;55638;51.122;13.606;2023-12-20T04:46:45;0.10;;;0.10;;
68655;SDS011;55638;51.122;13.606;2023-12-20T04:48:17;0.10;;;0.10;;
68655;SDS011;55638;51.122;13.606;2023-12-20T04:49:49;0.15;;;0.15;;
68655;SDS011;55638;51.122;13.606;2023-12-20T04:51:21;0.10;;;0.10;;
68655;SDS011;55638;51.122;13.606;2023-12-20T04:52:53;0.20;;;0.20;;
68655;SDS011;55638;51.122;13.606;2023-12-20T04:54:25;0.10;;;0.10;;
68655;SDS011;55638;51.122;13.606;2023-12-20T04:55:57;0.13;;;0.13;;
68655;SDS011;55638;51.122;13.606;2023-12-20T04:57:29;0.47;;;0.20;;
68655;SDS011;55638;51.122;13.606;2023-12-20T04:59:01;0.17;;;0.17;;
68655;SDS011;55638;51.122;13.606;2023-12-20T05:00:32;0.35;;;0.17;;
68655;SDS011;55638;51.122;13.606;2023-12-20T05:02:04;0.80;;;0.30;;
68655;SDS011;55638;51.122;13.606;2023-12-20T05:03:36;0.57;;;0.20;;
68655;SDS011;55638;51.122;13.606;2023-12-20T05:05:08;0.25;;;0.20;;
68655;SDS011;55638;51.122;13.606;2023-12-20T05:06:40;0.68;;;0.30;;
68655;SDS011;55638;51.122;13.606;2023-12-20T05:08:12;0.45;;;0.20;;
68655;SDS011;55638;51.122;13.606;2023-12-20T05:09:44;0.10;;;0.10;;
68655;SDS011;55638;51.122;13.606;2023-12-20T05:11:16;0.10;;;0.10;;
68655;SDS011;55638;51.122;13.606;2023-12-20T05:12:48;0.20;;;0.20;;
68655;SDS011;55638;51.122;13.606;2023-12-20T05:14:20;0.10;;;0.10;;
68655;SDS011;55638;51.122;13.606;2023-12-20T05:15:52;0.40;;;0.13;;
68655;SDS011;55638;51.122;13.606;2023-12-20T05:17:24;0.50;;;0.25;;
68655;SDS011;55638;51.122;13.606;2023-12-20T05:18:56;0.20;;;0.10;;
68655;SDS011;55638;51.122;13.606;2023-12-20T05:20:28;0.10;;;0.10;;
68655;SDS011;55638;51.122;13.606;2023-12-20T05:22:01;0.20;;;0.10;;
68655;SDS011;55638;51.122;13.606;2023-12-20T05:23:33;0.10;;;0.10;;
68655;SDS011;55638;51.122;13.606;2023-12-20T05:25:05;0.20;;;0.10;;
68655;SDS011;55638;51.122;13.606;2023-12-20T05:26:37;0.20;;;0.20;;
68655;SDS011;55638;51.122;13.606;2023-12-20T05:28:10;0.10;;;0.10;;
68655;SDS011;55638;51.122;13.606;2023-12-20T05:29:42;0.55;;;0.25;;
68655;SDS011;55638;51.122;13.606;2023-12-20T05:31:13;0.20;;;0.20;;
68655;SDS011;55638;51.122;13.606;2023-12-20T05:32:45;0.10;;;0.10;;
68655;SDS011;55638;51.122;13.606;2023-12-20T05:34:17;0.10;;;0.10;;
68655;SDS011;55638;51.122;13.606;2023-12-20T05:35:49;0.52;;;0.20;;
68655;SDS011;55638;51.122;13.606;2023-12-20T05:37:21;0.20;;;0.20;;
68655;SDS011;55638;51.122;13.606;2023-12-20T05:38:53;0.10;;;0.10;;
68655;SDS011;55638;51.122;13.606;2023-12-20T05:40:25;0.10;;;0.10;;
68655;SDS011;55638;51.122;13.606;2023-12-20T05:41:57;0.50;;;0.10;;
68655;SDS011;55638;51.122;13.606;2023-12-20T05:43:29;0.20;;;0.20;;
68655;SDS011;55638;51.122;13.606;2023-12-20T05:45:01;0.10;;;0.10;;
68655;SDS011;55638;51.122;13.606;2023-12-20T05:46:33;0.35;;;0.10;;
68655;SDS011;55638;51.122;13.606;2023-12-20T05:48:05;0.10;;;0.10;;
68655;SDS011;55638;51.122;13.606;2023-12-20T05:49:37;0.15;;;0.10;;
68655;SDS011;55638;51.122;13.606;2023-12-20T05:51:12;0.13;;;0.10;;
68655;SDS011;55638;51.122;13.606;2023-12-20T05:52:44;0.57;;;0.10;;
68655;SDS011;55638;51.122;13.606;2023-12-20T05:54:16;0.13;;;0.13;;
68655;SDS011;55638;51.122;13.606;2023-12-20T05:55:48;0.20;;;0.17;;
68655;SDS011;55638;51.122;13.606;2023-12-20T05:57:20;0.20;;;0.10;;
68655;SDS011;55638;51.122;13.606;2023-12-20T05:58:52;0.43;;;0.10;;
68655;SDS011;55638;51.122;13.606;2023-12-20T06:00:24;0.10;;;0.10;;
68655;SDS011;55638;51.122;13.606;2023-12-20T06:01:56;0.20;;;0.20;;
68655;SDS011;55638;51.122;13.606;2023-12-20T06:03:28;0.10;;;0.10;;
68655;SDS011;55638;51.122;13.606;2023-12-20T06:05:00;0.20;;;0.20;;
68655;SDS011;55638;51.122;13.606;2023-12-20T06:06:33;0.13;;;0.10;;
68655;SDS011;55638;51.122;13.606;2023-12-20T06:08:05;0.30;;;0.25;;
68655;SDS011;55638;51.122;13.606;2023-12-20T06:09:37;0.43;;;0.30;;
68655;SDS011;55638;51.122;13.606;2023-12-20T06:11:09;0.40;;;0.32;;
68655;SDS011;55638;51.122;13.606;2023-12-20T06:12:41;0.20;;;0.20;;
68655;SDS011;55638;51.122;13.606;2023-12-20T06:14:13;0.30;;;0.30;;
68655;SDS011;55638;51.122;13.606;2023-12-20T06:15:45;0.20;;;0.20;;
68655;SDS011;55638;51.122;13.606;2023-12-20T06:17:17;0.30;;;0.20;;
68655;SDS011;55638;51.122;13.606;2023-12-20T06:18:49;0.30;;;0.20;;
68655;SDS011;55638;51.122;13.606;2023-12-20T06:20:21;0.20;;;0.20;;
68655;SDS011;55638;51.122;13.606;2023-12-20T06:21:53;0.20;;;0.20;;
68655;SDS011;55638;51.122;13.606;2023-12-20T06:23:25;0.40;;;0.30;;
68655;SDS011;55638;51.122;13.606;2023-12-20T06:24:58;0.20;;;0.20;;
68655;SDS011;55638;51.122;13.606;2023-12-20T06:26:30;0.50;;;0.30;;
68655;SDS011;55638;51.122;13.606;2023-12-20T06:28:02;0.20;;;0.20;;
68655;SDS011;55638;51.122;13.606;2023-12-20T06:29:34;0.20;;;0.20;;
68655;SDS011;55638;51.122;13.606;2023-12-20T06:31:06;0.38;;;0.30;;
68655;SDS011;55638;51.122;13.606;2023-12-20T06:32:38;0.30;;;0.30;;
68655;SDS011;55638;51.122;13.606;2023-12-20T06:34:11;0.40;;;0.40;;
68655;SDS011;55638;51.122;13.606;2023-12-20T06:35:43;1.95;;;0.40;;
68655;SDS011;55638;51.122;13.606;2023-12-20T06:37:15;0.73;;;0.40;;
68655;SDS011;55638;51.122;13.606;2023-12-20T06:38:47;0.35;;;0.30;;
68655;SDS011;55638;51.122;13.606;2023-12-20T06:40:18;0.50;;;0.40;;
68655;SDS011;55638;51.122;13.606;2023-12-20T06:41:50;0.40;;;0.40;;
68655;SDS011;55638;51.122;13.606;2023-12-20T06:43:23;0.60;;;0.45;;
68655;SDS011;55638;51.122;13.606;2023-12-20T06:45:13;0.30;;;0.30;;
68655;SDS011;55638;51.122;13.606;2023-12-20T06:46:45;0.55;;;0.40;;
68655;SDS011;55638;51.122;13.606;2023-12-20T06:48:17;0.40;;;0.40;;
68655;SDS011;55638;51.122;13.606;2023-12-20T06:49:51;0.50;;;0.40;;
68655;SDS011;55638;51.122;13.606;2023-12-20T06:51:23;1.08;;;0.40;;
68655;SDS011;55638;51.122;13.606;2023-12-20T06:52:57;0.90;;;0.55;;
68655;SDS011;55638;51.122;13.606;2023-12-20T06:54:28;0.80;;;0.40;;
68655;SDS011;55638;51.122;13.606;2023-12-20T06:56:00;0.47;;;0.43;;
68655;SDS011;55638;51.122;13.606;2023-12-20T06:57:32;0.70;;;0.50;;
68655;SDS011;55638;51.122;13.606;2023-12-20T06:59:04;0.80;;;0.45;;
68655;SDS011;55638;51.122;13.606;2023-12-20T07:00:36;0.60;;;0.50;;
68655;SDS011;55638;51.122;13.606;2023-12-20T07:02:08;0.57;;;0.57;;
68655;SDS011;55638;51.122;13.606;2023-12-20T07:03:45;0.55;;;0.50;;
68655;SDS011;55638;51.122;13.606;2023-12-20T07:05:17;1.67;;;0.50;;
68655;SDS011;55638;51.122;13.606;2023-12-20T07:06:51;0.50;;;0.50;;
68655;SDS011;55638;51.122;13.606;2023-12-20T07:08:25;0.70;;;0.70;;
68655;SDS011;55638;51.122;13.606;2023-12-20T07:09:57;0.63;;;0.63;;
68655;SDS011;55638;51.122;13.606;2023-12-20T07:11:29;0.80;;;0.80;;
68655;SDS011;55638;51.122;13.606;2023-12-20T07:13:01;0.63;;;0.60;;
68655;SDS011;55638;51.122;13.606;2023-12-20T07:14:33;0.70;;;0.70;;
68655;SDS011;55638;51.122;13.606;2023-12-20T07:16:05;0.70;;;0.70;;
68655;SDS011;55638;51.122;13.606;2023-12-20T07:17:37;0.80;;;0.73;;
68655;SDS011;55638;51.122;13.606;2023-12-20T07:19:09;0.77;;;0.77;;
68655;SDS011;55638;51.122;13.606;2023-12-20T07:20:41;0.80;;;0.77;;
68655;SDS011;55638;51.122;13.606;2023-12-20T07:22:14;0.80;;;0.80;;
68655;SDS011;55638;51.122;13.606;2023-12-20T07:23:46;0.70;;;0.70;;
68655;SDS011;55638;51.122;13.606;2023-12-20T07:25:18;0.98;;;0.73;;
68655;SDS011;55638;51.122;13.606;2023-12-20T07:26:51;1.10;;;1.00;;
68655;SDS011;55638;51.122;13.606;2023-12-20T07:28:23;1.17;;;1.08;;
68655;SDS011;55638;51.122;13.606;2023-12-20T07:29:56;0.90;;;0.90;;
68655;SDS011;55638;51.122;13.606;2023-12-20T07:31:28;0.90;;;0.90;;
68655;SDS011;55638;51.122;13.606;2023-12-20T07:33:00;1.10;;;1.00;;
68655;SDS011;55638;51.122;13.606;2023-12-20T07:34:33;1.00;;;0.90;;
68655;SDS011;55638;51.122;13.606;2023-12-20T07:36:08;1.00;;;0.90;;
68655;SDS011;55638;51.122;13.606;2023-12-20T07:37:40;0.98;;;0.88;;
68655;SDS011;55638;51.122;13.606;2023-12-20T07:39:12;1.00;;;0.80;;
68655;SDS011;55638;51.122;13.606;2023-12-20T07:40:44;0.82;;;0.82;;
68655;SDS011;55638;51.122;13.606;2023-12-20T07:42:16;0.88;;;0.82;;
68655;SDS011;55638;51.122;13.606;2023-12-20T07:43:48;0.70;;;0.63;;
68655;SDS011;55638;51.122;13.606;2023-12-20T07:45:21;1.00;;;0.75;;
68655;SDS011;55638;51.122;13.606;2023-12-20T07:46:53;1.30;;;1.20;;
68655;SDS011;55638;51.122;13.606;2023-12-20T07:48:24;0.80;;;0.73;;
68655;SDS011;55638;51.122;13.606;2023-12-20T07:49:56;0.90;;;0.90;;
68655;SDS011;55638;51.122;13.606;2023-12-20T07:51:29;2.05;;;1.23;;
68655;SDS011;55638;51.122;13.606;2023-12-20T07:53:00;1.08;;;0.98;;
68655;SDS011;55638;51.122;13.606;2023-12-20T07:54:33;1.25;;;1.10;;
68655;SDS011;55638;51.122;13.606;2023-12-20T07:56:15;1.17;;;1.08;;
68655;SDS011;55638;51.122;13.606;2023-12-20T07:57:50;1.10;;;1.00;;
68655;SDS011;55638;51.122;13.606;2023-12-20T07:59:22;1.15;;;1.00;;
68655;SDS011;55638;51.122;13.606;2023-12-20T08:01:03;1.38;;;1.10;;
68655;SDS011;55638;51.122;13.606;2023-12-20T08:02:35;1.17;;;1.00;;
68655;SDS011;55638;51.122;13.606;2023-12-20T08:04:07;2.03;;;1.20;;
68655;SDS011;55638;51.122;13.606;2023-12-20T08:05:39;1.52;;;1.38;;
68655;SDS011;55638;51.122;13.606;2023-12-20T08:07:13;2.40;;;1.20;;
68655;SDS011;55638;51.122;13.606;2023-12-20T08:08:46;1.67;;;1.27;;
68655;SDS011;55638;51.122;13.606;2023-12-20T08:10:29;1.23;;;1.05;;
68655;SDS011;55638;51.122;13.606;2023-12-20T08:12:01;1.63;;;1.40;;
68655;SDS011;55638;51.122;13.606;2023-12-20T08:13:33;2.03;;;1.70;;
68655;SDS011;55638;51.122;13.606;2023-12-20T08:15:05;2.00;;;1.38;;
68655;SDS011;55638;51.122;13.606;2023-12-20T08:16:38;2.13;;;1.20;;
68655;SDS011;55638;51.122;13.606;2023-12-20T08:18:10;2.08;;;1.15;;
68655;SDS011;55638;51.122;13.606;2023-12-20T08:19:42;1.58;;;1.17;;
68655;SDS011;55638;51.122;13.606;2023-12-20T08:21:14;2.05;;;1.02;;
68655;SDS011;55638;51.122;13.606;2023-12-20T08:22:45;1.70;;;1.23;;
68655;SDS011;55638;51.122;13.606;2023-12-20T08:24:17;1.73;;;1.33;;
68655;SDS011;55638;51.122;13.606;2023-12-20T08:25:49;4.32;;;1.52;;
68655;SDS011;55638;51.122;13.606;2023-12-20T08:27:21;1.95;;;1.27;;
68655;SDS011;55638;51.122;13.606;2023-12-20T08:28:53;2.60;;;1.20;;
68655;SDS011;55638;51.122;13.606;2023-12-20T08:30:27;2.00;;;1.20;;
68655;SDS011;55638;51.122;13.606;2023-12-20T08:31:59;1.33;;;1.05;;
68655;SDS011;55638;51.122;13.606;2023-12-20T08:33:31;2.10;;;1.17;;
68655;SDS011;55638;51.122;13.606;2023-12-20T08:35:03;2.28;;;0.80;;
68655;SDS011;55638;51.122;13.606;2023-12-20T08:36:36;1.48;;;0.82;;
68655;SDS011;55638;51.122;13.606;2023-12-20T08:38:08;1.08;;;0.80;;
68655;SDS011;55638;51.122;13.606;2023-12-20T08:39:40;1.83;;;1.00;;
68655;SDS011;55638;51.122;13.606;2023-12-20T08:41:16;2.53;;;1.08;;
68655;SDS011;55638;51.122;13.606;2023-12-20T08:42:49;1.17;;;0.88;;
68655;SDS011;55638;51.122;13.606;2023-12-20T08:44:21;1.67;;;0.85;;
68655;SDS011;55638;51.122;13.606;2023-12-20T08:45:54;1.27;;;0.77;;
68655;SDS011;55638;51.122;13.606;2023-12-20T08:47:26;2.38;;;0.80;;
68655;SDS011;55638;51.122;13.606;2023-12-20T08:48:58;1.38;;;0.60;;
68655;SDS011;55638;51.122;13.606;2023-12-20T08:50:30;1.17;;;0.68;;
68655;SDS011;55638;51.122;13.606;2023-12-20T08:52:02;1.88;;;0.60;;
68655;SDS011;55638;51.122;13.606;2023-12-20T08:53:35;4.97;;;0.60;;
68655;SDS011;55638;51.122;13.606;2023-12-20T08:55:07;1.10;;;0.70;;
68655;SDS011;55638;51.122;13.606;2023-12-20T08:56:39;1.35;;;0.60;;
68655;SDS011;55638;51.122;13.606;2023-12-20T08:58:11;1.02;;;0.55;;
68655;SDS011;55638;51.122;13.606;2023-12-20T08:59:43;1.35;;;0.52;;
68655;SDS011;55638;51.122;13.606;2023-12-20T09:01:15;1.85;;;0.50;;
68655;SDS011;55638;51.122;13.606;2023-12-20T09:02:47;2.72;;;0.65;;
68655;SDS011;55638;51.122;13.606;2023-12-20T09:04:19;1.27;;;0.70;;
68655;SDS011;55638;51.122;13.606;2023-12-20T09:05:52;2.10;;;0.60;;
68655;SDS011;55638;51.122;13.606;2023-12-20T09:07:24;1.35;;;0.65;;
68655;SDS011;55638;51.122;13.606;2023-12-20T09:08:57;1.38;;;0.60;;